Time;durP1;ratioP1;P1;durP2;ratioP2;P2;SDS_P1;SDS_P2;PMS_P1;PMS_P2;Temp;Humidity;BMP_temperature;BMP_pressure;BME280_temperature;BME280_humidity;BME280_pressure;Samples;Min_cycle;Max_cycle;Signal;HPM_P1;HPM_P2
2024/03/22 00:00:48;;;;;;;1.70;0.30;;;6.40;99.90;;;;;;20825622;28;20029;-41
2024/03/22 00:10:50;;;;;;;0.75;0.30;;;5.90;99.90;;;;;;20824407;28;20029;-41
2024/03/22 00:20:51;;;;;;;0.85;0.43;;;6.10;99.90;;;;;;20824254;28;20127;-40
2024/03/22 00:30:53;;;;;;;1.52;0.30;;;6.10;99.90;;;;;;20828408;28;20099;-40
2024/03/22 00:40:55;;;;;;;0.98;0.20;;;6.10;99.90;;;;;;20887551;28;20040;-41
2024/03/22 00:50:56;;;;;;;0.65;0.20;;;6.00;99.90;;;;;;20904188;28;20166;-41
2024/03/22 01:00:58;;;;;;;0.60;0.40;;;6.40;99.90;;;;;;20905098;28;20045;-39
2024/03/22 01:11:01;;;;;;;2.63;0.30;;;6.40;99.90;;;;;;20904241;28;20037;-39
2024/03/22 01:21:03;;;;;;;0.60;0.40;;;6.00;99.90;;;;;;20917493;28;20036;-39
2024/03/22 01:31:05;;;;;;;0.80;0.40;;;6.00;99.90;;;;;;20919682;28;20045;-40
2024/03/22 01:41:06;;;;;;;1.10;0.50;;;6.10;99.90;;;;;;20862905;28;20037;-40
2024/03/22 01:51:09;;;;;;;0.60;0.30;;;6.10;99.90;;;;;;20786273;28;20450;-40
2024/03/22 02:01:11;;;;;;;1.15;0.40;;;6.40;99.90;;;;;;20835191;28;20465;-40
2024/03/22 02:11:13;;;;;;;3.67;0.65;;;5.80;99.90;;;;;;20828437;28;20030;-39
2024/03/22 02:21:15;;;;;;;1.27;0.57;;;5.30;99.90;;;;;;20833601;28;20113;-41
2024/03/22 02:31:17;;;;;;;0.85;0.40;;;5.70;99.90;;;;;;20839326;28;20094;-40
2024/03/22 02:41:19;;;;;;;1.10;0.60;;;5.80;99.90;;;;;;20914877;28;20033;-41
2024/03/22 02:51:20;;;;;;;1.27;0.38;;;5.30;99.90;;;;;;20881865;28;20025;-40
2024/03/22 03:01:22;;;;;;;1.15;0.50;;;4.90;99.90;;;;;;20912980;28;20033;-39
2024/03/22 03:11:24;;;;;;;0.50;0.47;;;4.70;99.90;;;;;;20911996;28;20480;-39
2024/03/22 03:21:26;;;;;;;3.10;0.60;;;4.70;99.90;;;;;;20893738;28;20029;-39
2024/03/22 03:31:27;;;;;;;1.35;0.43;;;4.60;99.90;;;;;;20901236;28;20038;-39
2024/03/22 03:41:29;;;;;;;1.92;0.60;;;4.50;99.90;;;;;;20827656;28;20431;-39
2024/03/22 03:51:31;;;;;;;2.63;0.65;;;4.20;99.90;;;;;;20794807;28;20075;-40
2024/03/22 04:01:33;;;;;;;3.17;0.50;;;3.80;99.90;;;;;;20825921;28;20422;-40
2024/03/22 04:11:34;;;;;;;1.98;0.57;;;3.60;99.90;;;;;;20792992;28;20052;-40
2024/03/22 04:21:36;;;;;;;2.00;0.65;;;3.50;99.90;;;;;;20762042;28;20030;-40
2024/03/22 04:31:38;;;;;;;0.88;0.50;;;4.20;99.90;;;;;;20818742;28;20045;-40
2024/03/22 04:41:40;;;;;;;2.28;0.50;;;4.30;99.90;;;;;;20736908;28;20026;-42
2024/03/22 04:51:42;;;;;;;1.40;0.60;;;4.40;99.90;;;;;;20780601;28;20033;-40
2024/03/22 05:01:44;;;;;;;1.90;0.80;;;4.60;99.90;;;;;;20822284;28;20038;-41
2024/03/22 05:11:49;;;;;;;2.95;0.85;;;4.70;99.90;;;;;;20821581;28;20034;-41
2024/03/22 05:21:51;;;;;;;1.73;0.63;;;4.60;99.90;;;;;;20787760;28;20033;-40
2024/03/22 05:31:57;;;;;;;9.25;5.95;;;5.00;99.90;;;;;;20743524;28;20497;-40
2024/03/22 05:41:59;;;;;;;2.35;1.40;;;4.60;99.90;;;;;;20789150;28;20090;-39
2024/03/22 05:52:00;;;;;;;1.70;0.70;;;4.10;99.90;;;;;;20834773;28;20423;-40
2024/03/22 06:02:02;;;;;;;4.00;2.10;;;3.60;99.90;;;;;;20723094;28;20038;-40
2024/03/22 06:12:05;;;;;;;2.17;1.00;;;3.40;99.90;;;;;;20776378;28;20084;-39
2024/03/22 06:22:07;;;;;;;4.03;1.52;;;3.40;99.90;;;;;;20832808;28;20032;-41
2024/03/22 06:32:09;;;;;;;14.25;4.93;;;3.60;99.90;;;;;;20835042;28;20037;-39
2024/03/22 06:42:11;;;;;;;4.50;1.70;;;3.90;99.90;;;;;;20763650;28;20460;-42
2024/03/22 06:52:12;;;;;;;1.17;0.60;;;4.10;99.90;;;;;;20749892;28;20362;-40
2024/03/22 07:02:14;;;;;;;1.95;0.50;;;4.40;99.90;;;;;;20748796;28;20057;-41
2024/03/22 07:12:16;;;;;;;0.88;0.43;;;5.00;99.90;;;;;;20801294;28;20443;-41
2024/03/22 07:22:19;;;;;;;0.93;0.40;;;6.20;99.90;;;;;;20774549;28;20033;-42
2024/03/22 07:32:23;;;;;;;0.82;0.50;;;7.40;99.90;;;;;;20766361;28;20538;-42
2024/03/22 07:42:25;;;;;;;0.50;0.40;;;8.70;99.90;;;;;;20822202;28;20432;-41
2024/03/22 07:52:27;;;;;;;1.20;0.60;;;9.80;99.30;;;;;;20819686;28;20033;-44
2024/03/22 08:02:29;;;;;;;2.67;0.50;;;11.10;98.40;;;;;;20823809;28;20033;-43
2024/03/22 08:12:31;;;;;;;0.95;0.47;;;12.00;96.30;;;;;;20803704;28;20056;-47
2024/03/22 08:22:32;;;;;;;3.20;0.50;;;12.50;94.20;;;;;;20819214;28;20044;-47
2024/03/22 08:32:34;;;;;;;1.40;0.50;;;12.90;91.70;;;;;;20819313;28;20045;-42
2024/03/22 08:42:36;;;;;;;0.93;0.40;;;12.10;96.20;;;;;;20801636;28;20048;-42
2024/03/22 08:52:38;;;;;;;2.33;0.65;;;13.00;94.80;;;;;;20821829;28;20029;-42
2024/03/22 09:02:40;;;;;;;0.98;0.60;;;13.90;94.20;;;;;;20649997;28;20081;-40
2024/03/22 09:12:42;;;;;;;1.55;0.50;;;14.50;93.70;;;;;;20649338;28;20560;-42
2024/03/22 09:22:44;;;;;;;1.13;0.60;;;14.30;93.70;;;;;;20644602;28;20053;-43
2024/03/22 09:32:46;;;;;;;1.13;0.40;;;14.90;92.50;;;;;;20760226;28;20065;-42
2024/03/22 09:42:49;;;;;;;1.80;0.60;;;15.30;92.10;;;;;;20828337;28;20034;-42
2024/03/22 09:52:53;;;;;;;0.60;0.40;;;15.40;90.50;;;;;;20812631;28;20480;-42
2024/03/22 10:02:55;;;;;;;1.77;0.60;;;15.70;89.90;;;;;;20828610;28;20103;-42
2024/03/22 10:12:57;;;;;;;1.13;0.60;;;16.00;91.10;;;;;;20792765;28;20038;-43
2024/03/22 10:22:59;;;;;;;1.38;0.88;;;16.30;91.80;;;;;;20831289;28;20030;-42
2024/03/22 10:33:04;;;;;;;1.38;0.93;;;16.20;92.40;;;;;;20832567;28;20099;-44
2024/03/22 10:43:06;;;;;;;1.77;1.10;;;16.50;92.80;;;;;;20826697;28;20029;-42
2024/03/22 10:53:24;;;;;;;1.60;1.10;;;16.70;92.40;;;;;;20825993;28;20087;-43
2024/03/22 11:03:30;;;;;;;1.88;1.13;;;17.10;91.30;;;;;;20826001;28;20422;-43
2024/03/22 11:13:36;;;;;;;3.85;1.30;;;16.70;94.00;;;;;;20826036;28;20029;-44
2024/03/22 11:23:39;;;;;;;1.98;1.10;;;16.20;93.10;;;;;;20809637;28;20037;-43
2024/03/22 11:33:45;;;;;;;2.55;1.63;;;16.10;94.40;;;;;;20804374;28;20126;-45
2024/03/22 11:43:48;;;;;;;2.00;1.42;;;16.40;92.60;;;;;;20822308;28;20040;-42
2024/03/22 11:53:56;;;;;;;1.52;1.40;;;16.40;94.20;;;;;;20788424;28;20392;-42
2024/03/22 12:03:57;;;;;;;1.90;1.40;;;16.90;93.30;;;;;;20817804;28;20034;-42
2024/03/22 12:13:59;;;;;;;1.80;1.48;;;17.50;93.50;;;;;;20823113;28;20037;-42
2024/03/22 12:24:01;;;;;;;2.47;1.70;;;17.60;93.20;;;;;;20824440;28;20037;-42
2024/03/22 12:34:03;;;;;;;1.70;1.30;;;17.50;92.70;;;;;;20823737;28;20041;-42
2024/03/22 12:44:07;;;;;;;1.55;1.25;;;17.10;94.00;;;;;;20822807;28;20049;-43
2024/03/22 12:54:09;;;;;;;1.75;1.23;;;16.90;93.30;;;;;;20821627;28;20029;-43
2024/03/22 13:04:11;;;;;;;2.00;1.23;;;16.80;92.70;;;;;;20779042;28;20435;-42
2024/03/22 13:14:14;;;;;;;1.98;1.38;;;16.70;93.40;;;;;;20826671;28;20033;-42
2024/03/22 13:24:16;;;;;;;4.57;2.00;;;16.60;92.50;;;;;;20798718;28;20473;-45
2024/03/22 13:34:18;;;;;;;2.30;1.70;;;16.10;93.50;;;;;;20819159;28;20042;-42
2024/03/22 13:44:20;;;;;;;2.30;1.70;;;16.10;92.20;;;;;;20835796;28;20030;-43
2024/03/22 13:54:22;;;;;;;3.25;2.28;;;16.20;92.70;;;;;;20832549;28;20041;-43
2024/03/22 14:04:25;;;;;;;7.35;5.05;;;16.00;92.40;;;;;;20814112;28;20034;-41
2024/03/22 14:14:27;;;;;;;7.47;5.38;;;15.70;93.50;;;;;;20769822;28;20477;-44
2024/03/22 14:24:29;;;;;;;10.57;6.85;;;15.20;93.50;;;;;;20791580;28;20036;-41
2024/03/22 14:34:31;;;;;;;11.48;6.80;;;14.70;95.20;;;;;;20784992;28;20037;-41
2024/03/22 14:44:32;;;;;;;9.30;6.60;;;14.30;95.00;;;;;;20834253;28;20037;-41
2024/03/22 14:54:35;;;;;;;12.18;7.20;;;14.00;96.20;;;;;;20786887;28;20037;-41
2024/03/22 15:04:39;;;;;;;10.32;7.78;;;13.80;96.40;;;;;;20735769;28;20029;-41
2024/03/22 15:14:41;;;;;;;11.05;7.47;;;13.40;96.70;;;;;;20753122;28;20053;-40
2024/03/22 15:24:43;;;;;;;11.25;8.10;;;12.70;97.60;;;;;;20760013;28;20044;-41
2024/03/22 15:34:45;;;;;;;12.07;8.43;;;12.30;98.30;;;;;;20793679;28;20049;-41
2024/03/22 15:44:46;;;;;;;13.65;9.60;;;11.90;99.00;;;;;;20698665;28;20085;-40
2024/03/22 15:54:48;;;;;;;12.45;9.20;;;11.80;99.60;;;;;;20666944;28;20552;-39
2024/03/22 16:04:51;;;;;;;13.80;9.73;;;11.40;99.90;;;;;;20682548;28;20042;-40
2024/03/22 16:14:53;;;;;;;14.60;10.50;;;11.10;99.90;;;;;;20755043;28;20071;-40
2024/03/22 16:24:55;;;;;;;16.67;11.93;;;10.60;99.90;;;;;;20842947;28;20033;-39
2024/03/22 16:34:57;;;;;;;17.75;11.60;;;10.10;99.90;;;;;;20851992;28;20083;-40
2024/03/22 16:44:59;;;;;;;20.08;11.88;;;9.60;99.90;;;;;;20885534;28;20035;-40
2024/03/22 16:55:01;;;;;;;18.73;12.27;;;9.10;99.90;;;;;;20904776;28;20033;-39
2024/03/22 17:05:03;;;;;;;20.25;11.68;;;8.60;99.90;;;;;;20904438;28;20021;-39
2024/03/22 17:15:06;;;;;;;18.73;12.38;;;8.20;99.90;;;;;;20904202;28;20041;-39
2024/03/22 17:25:09;;;;;;;36.20;25.10;;;7.60;99.90;;;;;;20903807;28;20396;-39
2024/03/22 17:35:11;;;;;;;17.90;11.23;;;7.10;99.90;;;;;;20885488;28;20044;-45
2024/03/22 17:45:13;;;;;;;17.23;10.27;;;6.60;99.90;;;;;;20903616;28;20079;-39
2024/03/22 17:55:15;;;;;;;17.13;10.93;;;6.30;99.90;;;;;;20884838;28;20037;-39
2024/03/22 18:05:17;;;;;;;13.23;8.38;;;6.00;99.90;;;;;;20844340;28;20112;-39
2024/03/22 18:15:19;;;;;;;14.88;9.48;;;6.00;99.90;;;;;;20834056;28;20029;-39
2024/03/22 18:25:21;;;;;;;13.98;9.70;;;5.80;99.90;;;;;;20883469;28;20048;-39
2024/03/22 18:35:23;;;;;;;15.13;9.48;;;5.50;99.90;;;;;;20905860;28;20045;-39
2024/03/22 18:45:25;;;;;;;20.27;11.10;;;5.50;99.90;;;;;;20832571;28;20033;-39
2024/03/22 18:55:26;;;;;;;16.30;9.57;;;5.40;99.90;;;;;;20796979;28;20181;-39
2024/03/22 19:05:28;;;;;;;10.85;6.10;;;5.10;99.90;;;;;;20830509;28;20026;-39
2024/03/22 19:15:30;;;;;;;14.57;6.43;;;5.10;99.90;;;;;;20812656;28;20026;-39
2024/03/22 19:25:32;;;;;;;9.10;4.95;;;4.90;99.90;;;;;;20797268;28;20088;-40
2024/03/22 19:35:34;;;;;;;7.78;4.47;;;4.70;99.90;;;;;;20870708;28;20041;-40
2024/03/22 19:45:36;;;;;;;13.13;6.38;;;4.90;99.90;;;;;;20904586;28;20432;-40
2024/03/22 19:55:37;;;;;;;8.13;4.60;;;4.70;99.90;;;;;;20909007;28;20036;-40
2024/03/22 20:05:39;;;;;;;8.43;4.93;;;4.80;99.90;;;;;;20873240;28;20033;-40
2024/03/22 20:15:41;;;;;;;10.70;5.07;;;4.90;99.90;;;;;;20907578;28;20048;-39
2024/03/22 20:25:46;;;;;;;9.93;5.50;;;4.70;99.90;;;;;;20904711;28;20029;-40
2024/03/22 20:35:52;;;;;;;9.15;4.88;;;4.60;99.90;;;;;;20906277;28;20041;-40
2024/03/22 20:45:54;;;;;;;7.35;4.18;;;4.60;99.90;;;;;;20884336;28;20080;-40
2024/03/22 20:56:00;;;;;;;9.43;5.53;;;4.60;99.90;;;;;;20877637;28;20040;-39
2024/03/22 21:06:03;;;;;;;10.73;5.90;;;4.50;99.90;;;;;;20905500;28;20095;-40
2024/03/22 21:16:06;;;;;;;19.05;9.35;;;4.50;99.90;;;;;;20855410;28;20069;-39
2024/03/22 21:26:09;;;;;;;16.85;7.53;;;4.30;99.90;;;;;;20879014;28;20492;-41
2024/03/22 21:36:13;;;;;;;11.70;7.57;;;4.50;99.90;;;;;;20913656;28;20373;-40
2024/03/22 21:46:16;;;;;;;14.23;8.15;;;4.70;99.90;;;;;;20893648;28;20041;-40
2024/03/22 21:56:19;;;;;;;9.07;5.38;;;4.70;99.90;;;;;;20918228;28;20033;-39
2024/03/22 22:06:22;;;;;;;10.63;6.55;;;4.60;99.90;;;;;;20917711;28;20033;-39
2024/03/22 22:16:24;;;;;;;14.40;7.10;;;4.50;99.90;;;;;;20892024;28;20037;-39
2024/03/22 22:26:27;;;;;;;11.32;6.90;;;4.60;99.90;;;;;;20892538;28;20689;-41
2024/03/22 22:36:30;;;;;;;11.48;6.45;;;4.70;99.90;;;;;;20915640;28;20040;-39
2024/03/22 22:46:32;;;;;;;13.30;7.78;;;4.50;99.90;;;;;;20908253;28;20028;-40
2024/03/22 22:56:37;;;;;;;11.82;6.45;;;4.30;99.90;;;;;;20914413;28;20112;-39
2024/03/22 23:06:40;;;;;;;14.60;8.15;;;4.10;99.90;;;;;;20913323;28;20040;-40
2024/03/22 23:16:43;;;;;;;15.82;8.38;;;3.90;99.90;;;;;;20912016;28;20087;-40
2024/03/22 23:26:46;;;;;;;15.60;8.77;;;4.20;99.90;;;;;;20910146;28;20025;-39
2024/03/22 23:36:50;;;;;;;18.48;9.00;;;4.30;99.90;;;;;;20910196;28;20087;-39
2024/03/22 23:46:53;;;;;;;20.25;8.85;;;4.30;99.90;;;;;;20656656;28;20096;-40
2024/03/22 23:56:56;;;;;;;14.60;8.45;;;4.20;99.90;;;;;;20653305;28;20046;-39
